sensor_id;sensor_type;location;lat;lon;timestamp;pressure;altitude;pressure_sealevel;temperature;humidity
49393;BME280;35268;42.642;23.308;2023-06-14T00:00:56;93663.09;;;16.54;88.73
49393;BME280;35268;42.642;23.308;2023-06-14T00:03:22;93668.97;;;16.60;89.22
49393;BME280;35268;42.642;23.308;2023-06-14T00:05:49;93668.91;;;16.56;87.89
49393;BME280;35268;42.642;23.308;2023-06-14T00:08:15;93663.94;;;16.58;87.68
49393;BME280;35268;42.642;23.308;2023-06-14T00:10:41;93655.53;;;16.60;87.82
49393;BME280;35268;42.642;23.308;2023-06-14T00:13:08;93657.16;;;16.64;89.03
49393;BME280;35268;42.642;23.308;2023-06-14T00:15:34;93666.06;;;16.69;89.56
49393;BME280;35268;42.642;23.308;2023-06-14T00:18:00;93663.09;;;16.74;89.74
49393;BME280;35268;42.642;23.308;2023-06-14T00:20:30;93654.28;;;16.77;89.53
49393;BME280;35268;42.642;23.308;2023-06-14T00:22:56;93658.56;;;16.78;89.79
49393;BME280;35268;42.642;23.308;2023-06-14T00:25:25;93644.75;;;16.79;90.29
49393;BME280;35268;42.642;23.308;2023-06-14T00:27:51;93654.03;;;16.82;90.56
49393;BME280;35268;42.642;23.308;2023-06-14T00:30:17;93659.84;;;16.84;89.87
49393;BME280;35268;42.642;23.308;2023-06-14T00:32:43;93656.81;;;16.86;89.33
49393;BME280;35268;42.642;23.308;2023-06-14T00:35:09;93648.78;;;16.89;88.96
49393;BME280;35268;42.642;23.308;2023-06-14T00:37:35;93653.38;;;16.89;88.93
49393;BME280;35268;42.642;23.308;2023-06-14T00:40:01;93644.53;;;16.88;88.63
49393;BME280;35268;42.642;23.308;2023-06-14T00:42:27;93647.16;;;16.84;87.87
49393;BME280;35268;42.642;23.308;2023-06-14T00:44:53;93644.75;;;16.79;88.30
49393;BME280;35268;42.642;23.308;2023-06-14T00:47:19;93647.09;;;16.81;89.62
49393;BME280;35268;42.642;23.308;2023-06-14T00:49:46;93642.41;;;16.78;89.27
49393;BME280;35268;42.642;23.308;2023-06-14T00:52:13;93636.19;;;16.74;89.27
49393;BME280;35268;42.642;23.308;2023-06-14T00:54:43;93631.94;;;16.73;89.15
49393;BME280;35268;42.642;23.308;2023-06-14T00:57:09;93643.91;;;16.75;88.63
49393;BME280;35268;42.642;23.308;2023-06-14T00:59:40;93639.28;;;16.76;88.24
49393;BME280;35268;42.642;23.308;2023-06-14T01:02:07;93628.53;;;16.76;88.23
49393;BME280;35268;42.642;23.308;2023-06-14T01:04:57;93632.41;;;16.78;87.94
49393;BME280;35268;42.642;23.308;2023-06-14T01:15:20;93637.91;;;16.82;87.80
49393;BME280;35268;42.642;23.308;2023-06-14T01:17:50;93634.00;;;16.79;88.03
49393;BME280;35268;42.642;23.308;2023-06-14T01:20:17;93642.41;;;16.78;88.21
49393;BME280;35268;42.642;23.308;2023-06-14T01:22:54;93635.84;;;16.75;88.19
49393;BME280;35268;42.642;23.308;2023-06-14T01:25:21;93638.53;;;16.75;88.08
49393;BME280;35268;42.642;23.308;2023-06-14T01:27:53;93638.53;;;16.75;87.42
49393;BME280;35268;42.642;23.308;2023-06-14T01:30:20;93635.84;;;16.75;87.49
49393;BME280;35268;42.642;23.308;2023-06-14T01:32:47;93628.19;;;16.77;87.98
49393;BME280;35268;42.642;23.308;2023-06-14T01:35:16;93628.94;;;16.78;88.21
49393;BME280;35268;42.642;23.308;2023-06-14T01:37:43;93628.94;;;16.78;88.10
49393;BME280;35268;42.642;23.308;2023-06-14T01:40:10;93639.38;;;16.79;88.19
49393;BME280;35268;42.642;23.308;2023-06-14T01:42:36;93632.06;;;16.80;88.50
49393;BME280;35268;42.642;23.308;2023-06-14T01:45:04;93629.38;;;16.80;88.55
49393;BME280;35268;42.642;23.308;2023-06-14T01:47:31;93628.25;;;16.81;88.85
49393;BME280;35268;42.642;23.308;2023-06-14T01:49:58;93630.94;;;16.81;88.66
49393;BME280;35268;42.642;23.308;2023-06-14T01:52:23;93633.63;;;16.81;88.52
49393;BME280;35268;42.642;23.308;2023-06-14T01:54:50;93636.31;;;16.81;88.06
49393;BME280;35268;42.642;23.308;2023-06-14T01:57:15;93636.31;;;16.81;87.92
49393;BME280;35268;42.642;23.308;2023-06-14T01:59:41;93641.25;;;16.79;87.81
49393;BME280;35268;42.642;23.308;2023-06-14T02:02:06;93642.41;;;16.78;88.60
49393;BME280;35268;42.642;23.308;2023-06-14T02:04:34;93644.97;;;16.71;86.55
49393;BME280;35268;42.642;23.308;2023-06-14T02:06:59;93635.16;;;16.59;86.59
49393;BME280;35268;42.642;23.308;2023-06-14T02:09:25;93647.34;;;16.53;86.59
49393;BME280;35268;42.642;23.308;2023-06-14T02:11:50;93647.19;;;16.45;87.06
49393;BME280;35268;42.642;23.308;2023-06-14T02:14:16;93647.84;;;16.39;87.24
49393;BME280;35268;42.642;23.308;2023-06-14T02:16:42;93662.41;;;16.38;87.80
49393;BME280;35268;42.642;23.308;2023-06-14T02:19:15;93667.78;;;16.38;88.72
49393;BME280;35268;42.642;23.308;2023-06-14T02:21:41;93666.66;;;16.39;88.83
49393;BME280;35268;42.642;23.308;2023-06-14T02:24:07;93659.38;;;16.39;89.22
49393;BME280;35268;42.642;23.308;2023-06-14T02:26:32;93667.00;;;16.37;89.21
49393;BME280;35268;42.642;23.308;2023-06-14T02:28:58;93668.50;;;16.35;89.52
49393;BME280;35268;42.642;23.308;2023-06-14T02:31:26;93665.38;;;16.33;90.31
49393;BME280;35268;42.642;23.308;2023-06-14T02:33:52;93664.66;;;16.36;90.19
49393;BME280;35268;42.642;23.308;2023-06-14T02:36:18;93661.56;;;16.34;90.04
49393;BME280;35268;42.642;23.308;2023-06-14T02:38:43;93659.59;;;16.31;89.32
49393;BME280;35268;42.642;23.308;2023-06-14T02:41:08;93658.31;;;16.24;89.43
49393;BME280;35268;42.642;23.308;2023-06-14T02:43:34;93662.53;;;16.25;90.18
49393;BME280;35268;42.642;23.308;2023-06-14T02:46:03;93671.03;;;16.28;90.56
49393;BME280;35268;42.642;23.308;2023-06-14T02:48:31;93665.22;;;16.25;90.77
49393;BME280;35268;42.642;23.308;2023-06-14T02:54:27;93668.34;;;16.28;91.35
49393;BME280;35268;42.642;23.308;2023-06-14T02:57:01;93666.09;;;16.30;91.11
49393;BME280;35268;42.642;23.308;2023-06-14T03:00:04;93666.81;;;16.27;91.23
49393;BME280;35268;42.642;23.308;2023-06-14T03:02:30;93659.84;;;16.25;91.56
49393;BME280;35268;42.642;23.308;2023-06-14T03:05:00;93664.53;;;16.29;91.92
49393;BME280;35268;42.642;23.308;2023-06-14T03:07:41;93669.19;;;16.32;91.99
49393;BME280;35268;42.642;23.308;2023-06-14T03:10:12;93665.31;;;16.29;91.64
49393;BME280;35268;42.642;23.308;2023-06-14T03:12:38;93668.78;;;16.30;90.88
49393;BME280;35268;42.642;23.308;2023-06-14T03:15:07;93681.03;;;16.27;90.93
49393;BME280;35268;42.642;23.308;2023-06-14T03:17:47;93678.00;;;16.29;91.12
49393;BME280;35268;42.642;23.308;2023-06-14T03:20:16;93671.53;;;16.33;91.38
49393;BME280;35268;42.642;23.308;2023-06-14T03:22:56;93687.25;;;16.31;91.79
49393;BME280;35268;42.642;23.308;2023-06-14T03:25:35;93677.69;;;16.34;91.22
49393;BME280;35268;42.642;23.308;2023-06-14T03:28:08;93674.31;;;16.37;90.96
49393;BME280;35268;42.642;23.308;2023-06-14T03:30:36;93672.81;;;16.39;91.03
49393;BME280;35268;42.642;23.308;2023-06-14T03:33:13;93673.16;;;16.38;89.63
49393;BME280;35268;42.642;23.308;2023-06-14T03:35:39;93683.91;;;16.38;90.54
49393;BME280;35268;42.642;23.308;2023-06-14T03:38:06;93690.16;;;16.42;90.47
49393;BME280;35268;42.642;23.308;2023-06-14T03:40:32;93685.56;;;16.42;90.13
49393;BME280;35268;42.642;23.308;2023-06-14T03:42:57;93691.28;;;16.41;89.49
49393;BME280;35268;42.642;23.308;2023-06-14T03:45:23;93688.59;;;16.41;89.64
49393;BME280;35268;42.642;23.308;2023-06-14T03:47:48;93694.56;;;16.31;90.51
49393;BME280;35268;42.642;23.308;2023-06-14T03:50:23;93687.59;;;16.30;91.32
49393;BME280;35268;42.642;23.308;2023-06-14T03:52:53;93688.31;;;16.27;91.68
49393;BME280;35268;42.642;23.308;2023-06-14T03:55:26;93692.97;;;16.30;92.21
49393;BME280;35268;42.642;23.308;2023-06-14T03:58:01;93688.44;;;16.34;92.30
49393;BME280;35268;42.642;23.308;2023-06-14T04:00:27;93697.38;;;16.38;92.05
49393;BME280;35268;42.642;23.308;2023-06-14T04:02:53;93695.81;;;16.37;91.13
49393;BME280;35268;42.642;23.308;2023-06-14T04:05:21;93698.56;;;16.40;90.77
49393;BME280;35268;42.642;23.308;2023-06-14T04:07:47;93687.03;;;16.40;90.39
49393;BME280;35268;42.642;23.308;2023-06-14T04:10:14;93697.78;;;16.40;90.07
49393;BME280;35268;42.642;23.308;2023-06-14T04:12:40;93702.06;;;16.41;90.00
49393;BME280;35268;42.642;23.308;2023-06-14T04:15:06;93698.94;;;16.39;90.37
49393;BME280;35268;42.642;23.308;2023-06-14T04:17:33;93688.19;;;16.39;90.31
49393;BME280;35268;42.642;23.308;2023-06-14T04:19:59;93698.94;;;16.39;89.73
49393;BME280;35268;42.642;23.308;2023-06-14T04:22:35;93692.06;;;16.41;89.79
49393;BME280;35268;42.642;23.308;2023-06-14T04:25:02;93702.06;;;16.41;90.46
49393;BME280;35268;42.642;23.308;2023-06-14T04:27:27;93699.06;;;16.46;90.82
49393;BME280;35268;42.642;23.308;2023-06-14T04:29:56;93697.22;;;16.50;90.54
49393;BME280;35268;42.642;23.308;2023-06-14T04:32:30;93690.00;;;16.54;89.49
49393;BME280;35268;42.642;23.308;2023-06-14T04:34:59;93696.97;;;16.55;89.19
49393;BME280;35268;42.642;23.308;2023-06-14T04:37:27;93698.66;;;16.63;88.61
49393;BME280;35268;42.642;23.308;2023-06-14T04:39:55;93704.13;;;16.67;88.12
49393;BME280;35268;42.642;23.308;2023-06-14T04:42:21;93702.97;;;16.68;87.55
49393;BME280;35268;42.642;23.308;2023-06-14T04:44:50;93692.13;;;16.64;87.63
49393;BME280;35268;42.642;23.308;2023-06-14T04:47:16;93697.31;;;16.73;87.09
49393;BME280;35268;42.642;23.308;2023-06-14T04:49:42;93704.03;;;16.83;87.01
49393;BME280;35268;42.642;23.308;2023-06-14T04:52:08;93705.03;;;16.94;86.52
49393;BME280;35268;42.642;23.308;2023-06-14T04:54:36;93705.94;;;17.02;85.64
49393;BME280;35268;42.642;23.308;2023-06-14T04:57:04;93700.31;;;17.11;85.62
49393;BME280;35268;42.642;23.308;2023-06-14T04:59:29;93703.56;;;17.20;85.18
49393;BME280;35268;42.642;23.308;2023-06-14T05:01:58;93704.88;;;17.30;84.65
49393;BME280;35268;42.642;23.308;2023-06-14T05:04:28;93711.59;;;17.39;84.33
49393;BME280;35268;42.642;23.308;2023-06-14T05:06:54;93717.53;;;17.49;83.69
49393;BME280;35268;42.642;23.308;2023-06-14T05:09:20;93717.75;;;17.63;83.16
49393;BME280;35268;42.642;23.308;2023-06-14T05:11:46;93709.06;;;17.73;82.38
49393;BME280;35268;42.642;23.308;2023-06-14T05:14:15;93715.03;;;17.86;82.27
49393;BME280;35268;42.642;23.308;2023-06-14T05:16:48;93715.94;;;17.94;81.63
49393;BME280;35268;42.642;23.308;2023-06-14T05:19:16;93718.47;;;18.10;80.85
49393;BME280;35268;42.642;23.308;2023-06-14T05:21:44;93721.81;;;18.30;80.00
49393;BME280;35268;42.642;23.308;2023-06-14T05:24:14;93723.16;;;18.43;76.32
49393;BME280;35268;42.642;23.308;2023-06-14T05:26:40;93721.97;;;18.40;76.72
49393;BME280;35268;42.642;23.308;2023-06-14T05:29:05;93733.84;;;18.36;76.43
49393;BME280;35268;42.642;23.308;2023-06-14T05:31:44;93736.53;;;18.36;76.92
49393;BME280;35268;42.642;23.308;2023-06-14T05:34:10;93741.16;;;18.35;76.92
49393;BME280;35268;42.642;23.308;2023-06-14T05:39:47;93734.53;;;18.59;77.07
49393;BME280;35268;42.642;23.308;2023-06-14T05:42:12;93736.03;;;18.83;76.96
49393;BME280;35268;42.642;23.308;2023-06-14T05:44:51;93740.25;;;19.18;76.40
49393;BME280;35268;42.642;23.308;2023-06-14T05:47:47;93743.13;;;19.33;75.65
49393;BME280;35268;42.642;23.308;2023-06-14T05:50:27;93751.81;;;19.53;75.82
49393;BME280;35268;42.642;23.308;2023-06-14T05:53:29;93749.53;;;19.58;70.90
49393;BME280;35268;42.642;23.308;2023-06-14T05:56:06;93755.53;;;19.41;70.07
49393;BME280;35268;42.642;23.308;2023-06-14T05:58:40;93745.72;;;19.22;70.79
49393;BME280;35268;42.642;23.308;2023-06-14T06:01:18;93755.16;;;19.01;71.85
49393;BME280;35268;42.642;23.308;2023-06-14T06:03:49;93760.03;;;18.92;74.45
49393;BME280;35268;42.642;23.308;2023-06-14T06:06:31;93754.97;;;18.87;75.40
49393;BME280;35268;42.642;23.308;2023-06-14T06:09:13;93757.84;;;18.71;75.51
49393;BME280;35268;42.642;23.308;2023-06-14T06:11:47;93758.47;;;18.61;76.17
49393;BME280;35268;42.642;23.308;2023-06-14T06:14:20;93759.00;;;18.43;77.38
49393;BME280;35268;42.642;23.308;2023-06-14T06:16:46;93757.06;;;18.40;77.21
49393;BME280;35268;42.642;23.308;2023-06-14T06:19:34;93753.38;;;18.25;77.54
49393;BME280;35268;42.642;23.308;2023-06-14T06:22:10;93749.75;;;18.14;77.11
49393;BME280;35268;42.642;23.308;2023-06-14T06:24:38;93771.31;;;18.14;78.19
49393;BME280;35268;42.642;23.308;2023-06-14T06:27:11;93763.91;;;18.08;78.91
49393;BME280;35268;42.642;23.308;2023-06-14T06:29:43;93765.38;;;18.01;79.42
49393;BME280;35268;42.642;23.308;2023-06-14T06:32:14;93768.78;;;17.98;80.88
49393;BME280;35268;42.642;23.308;2023-06-14T06:34:48;93776.88;;;17.98;81.14
49393;BME280;35268;42.642;23.308;2023-06-14T06:37:24;93777.22;;;17.97;81.03
49393;BME280;35268;42.642;23.308;2023-06-14T06:39:52;93768.41;;;18.00;81.20
49393;BME280;35268;42.642;23.308;2023-06-14T06:42:25;93772.44;;;18.13;80.33
49393;BME280;35268;42.642;23.308;2023-06-14T06:44:51;93774.13;;;18.21;79.96
49393;BME280;35268;42.642;23.308;2023-06-14T06:47:17;93768.09;;;18.32;80.68
49393;BME280;35268;42.642;23.308;2023-06-14T06:49:44;93771.31;;;18.41;79.91
49393;BME280;35268;42.642;23.308;2023-06-14T06:52:13;93783.34;;;18.47;78.52
49393;BME280;35268;42.642;23.308;2023-06-14T06:54:39;93774.13;;;18.48;78.49
49393;BME280;35268;42.642;23.308;2023-06-14T06:57:04;93778.00;;;18.51;77.86
49393;BME280;35268;42.642;23.308;2023-06-14T06:59:31;93774.56;;;18.54;77.61
49393;BME280;35268;42.642;23.308;2023-06-14T07:01:57;93772.38;;;18.63;77.49
49393;BME280;35268;42.642;23.308;2023-06-14T07:04:22;93775.56;;;18.72;77.32
49393;BME280;35268;42.642;23.308;2023-06-14T07:06:48;93787.16;;;18.99;77.70
49393;BME280;35268;42.642;23.308;2023-06-14T07:09:14;93767.38;;;19.29;77.30
49393;BME280;35268;42.642;23.308;2023-06-14T07:11:42;93780.72;;;19.49;74.28
49393;BME280;35268;42.642;23.308;2023-06-14T07:14:08;93782.78;;;19.62;73.64
49393;BME280;35268;42.642;23.308;2023-06-14T07:16:33;93774.41;;;19.71;71.41
49393;BME280;35268;42.642;23.308;2023-06-14T07:18:59;93776.00;;;19.79;71.66
49393;BME280;35268;42.642;23.308;2023-06-14T07:21:25;93780.00;;;19.93;73.63
49393;BME280;35268;42.642;23.308;2023-06-14T07:23:54;93775.91;;;20.13;73.28
49393;BME280;35268;42.642;23.308;2023-06-14T07:26:20;93774.91;;;20.36;72.64
49393;BME280;35268;42.642;23.308;2023-06-14T07:28:46;93766.94;;;20.61;71.30
49393;BME280;35268;42.642;23.308;2023-06-14T07:31:13;93760.84;;;20.82;68.36
49393;BME280;35268;42.642;23.308;2023-06-14T07:33:39;93769.06;;;21.03;68.30
49393;BME280;35268;42.642;23.308;2023-06-14T07:36:05;93773.75;;;21.14;66.68
49393;BME280;35268;42.642;23.308;2023-06-14T07:38:30;93769.84;;;21.08;67.05
49393;BME280;35268;42.642;23.308;2023-06-14T07:40:59;93769.00;;;20.86;66.85
49393;BME280;35268;42.642;23.308;2023-06-14T07:43:30;93765.13;;;20.83;66.92
49393;BME280;35268;42.642;23.308;2023-06-14T07:46:16;93762.47;;;20.97;68.48
49393;BME280;35268;42.642;23.308;2023-06-14T07:48:52;93769.06;;;21.03;67.90
49393;BME280;35268;42.642;23.308;2023-06-14T07:51:20;93765.97;;;21.01;66.52
49393;BME280;35268;42.642;23.308;2023-06-14T07:53:59;93762.91;;;21.07;66.18
49393;BME280;35268;42.642;23.308;2023-06-14T07:56:54;93777.63;;;21.13;67.91
49393;BME280;35268;42.642;23.308;2023-06-14T07:59:37;93782.25;;;21.12;65.94
49393;BME280;35268;42.642;23.308;2023-06-14T08:02:06;93782.66;;;21.18;67.12
49393;BME280;35268;42.642;23.308;2023-06-14T08:04:45;93785.03;;;21.23;65.44
49393;BME280;35268;42.642;23.308;2023-06-14T08:07:13;93788.50;;;21.31;65.97
49393;BME280;35268;42.642;23.308;2023-06-14T08:09:53;93795.06;;;21.22;65.27
49393;BME280;35268;42.642;23.308;2023-06-14T08:12:22;93800.06;;;21.10;64.99
49393;BME280;35268;42.642;23.308;2023-06-14T08:14:52;93807.00;;;21.03;64.62
49393;BME280;35268;42.642;23.308;2023-06-14T08:17:27;93805.53;;;21.17;64.68
49393;BME280;35268;42.642;23.308;2023-06-14T08:20:07;93804.03;;;21.37;63.86
49393;BME280;35268;42.642;23.308;2023-06-14T08:22:33;93806.34;;;21.35;64.20
49393;BME280;35268;42.642;23.308;2023-06-14T08:25:10;93806.44;;;21.50;63.75
49393;BME280;35268;42.642;23.308;2023-06-14T08:27:39;93804.09;;;21.55;63.73
49393;BME280;35268;42.642;23.308;2023-06-14T08:30:17;93806.44;;;21.60;62.33
49393;BME280;35268;42.642;23.308;2023-06-14T08:32:53;93811.09;;;21.67;62.44
49393;BME280;35268;42.642;23.308;2023-06-14T08:35:21;93812.66;;;21.75;63.32
49393;BME280;35268;42.642;23.308;2023-06-14T08:37:52;93808.03;;;21.79;62.71
49393;BME280;35268;42.642;23.308;2023-06-14T08:40:20;93805.72;;;21.89;62.51
49393;BME280;35268;42.642;23.308;2023-06-14T08:43:06;93808.41;;;21.85;61.96
49393;BME280;35268;42.642;23.308;2023-06-14T08:45:36;93806.50;;;21.93;62.78
49393;BME280;35268;42.642;23.308;2023-06-14T08:48:05;93794.47;;;22.15;62.90
49393;BME280;35268;42.642;23.308;2023-06-14T08:50:42;93798.75;;;22.31;61.48
49393;BME280;35268;42.642;23.308;2023-06-14T08:53:11;93795.28;;;22.30;60.37
49393;BME280;35268;42.642;23.308;2023-06-14T08:55:50;93789.47;;;22.32;60.95
49393;BME280;35268;42.642;23.308;2023-06-14T08:58:21;93791.00;;;22.40;62.19
49393;BME280;35268;42.642;23.308;2023-06-14T09:00:49;93795.66;;;22.57;62.41
49393;BME280;35268;42.642;23.308;2023-06-14T09:03:22;93791.78;;;22.51;60.62
49393;BME280;35268;42.642;23.308;2023-06-14T09:05:51;93794.03;;;22.78;59.78
49393;BME280;35268;42.642;23.308;2023-06-14T09:08:35;93783.09;;;22.99;59.70
49393;BME280;35268;42.642;23.308;2023-06-14T09:11:15;93788.53;;;23.10;58.94
49393;BME280;35268;42.642;23.308;2023-06-14T09:13:52;93785.41;;;23.12;58.70
49393;BME280;35268;42.642;23.308;2023-06-14T09:16:25;93787.66;;;23.31;58.73
49393;BME280;35268;42.642;23.308;2023-06-14T09:18:58;93792.59;;;23.54;57.83
49393;BME280;35268;42.642;23.308;2023-06-14T09:21:33;93788.97;;;23.79;58.58
49393;BME280;35268;42.642;23.308;2023-06-14T09:24:12;93784.97;;;23.98;56.27
49393;BME280;35268;42.642;23.308;2023-06-14T09:26:41;93791.19;;;23.98;54.53
49393;BME280;35268;42.642;23.308;2023-06-14T09:29:06;93782.34;;;23.76;56.06
49393;BME280;35268;42.642;23.308;2023-06-14T09:31:41;93776.59;;;23.67;56.84
49393;BME280;35268;42.642;23.308;2023-06-14T09:34:07;93785.13;;;23.69;57.15
49393;BME280;35268;42.642;23.308;2023-06-14T09:36:41;93786.19;;;23.90;56.04
49393;BME280;35268;42.642;23.308;2023-06-14T09:39:08;93788.00;;;24.07;54.10
49393;BME280;35268;42.642;23.308;2023-06-14T09:41:38;93780.53;;;24.18;54.28
49393;BME280;35268;42.642;23.308;2023-06-14T09:44:06;93776.94;;;24.29;54.12
49393;BME280;35268;42.642;23.308;2023-06-14T09:46:33;93779.06;;;24.48;54.45
49393;BME280;35268;42.642;23.308;2023-06-14T09:48:59;93771.97;;;24.61;52.62
49393;BME280;35268;42.642;23.308;2023-06-14T09:51:26;93773.50;;;24.62;52.19
49393;BME280;35268;42.642;23.308;2023-06-14T09:53:52;93774.63;;;24.69;53.03
49393;BME280;35268;42.642;23.308;2023-06-14T09:56:28;93771.00;;;24.79;53.55
49393;BME280;35268;42.642;23.308;2023-06-14T09:58:56;93776.09;;;24.77;52.18
49393;BME280;35268;42.642;23.308;2023-06-14T10:01:24;93760.97;;;24.72;53.06
49393;BME280;35268;42.642;23.308;2023-06-14T10:03:50;93765.31;;;24.66;53.99
49393;BME280;35268;42.642;23.308;2023-06-14T10:06:17;93761.81;;;24.66;54.21
49393;BME280;35268;42.642;23.308;2023-06-14T10:08:43;93750.84;;;24.73;53.96
49393;BME280;35268;42.642;23.308;2023-06-14T10:11:09;93742.13;;;24.85;53.84
49393;BME280;35268;42.642;23.308;2023-06-14T10:13:36;93748.63;;;24.95;53.44
49393;BME280;35268;42.642;23.308;2023-06-14T10:16:07;93748.22;;;25.00;52.79
49393;BME280;35268;42.642;23.308;2023-06-14T10:21:41;93734.59;;;24.96;52.82
49393;BME280;35268;42.642;23.308;2023-06-14T10:24:13;93739.53;;;25.09;52.47
49393;BME280;35268;42.642;23.308;2023-06-14T10:26:51;93736.78;;;25.09;52.34
49393;BME280;35268;42.642;23.308;2023-06-14T10:29:17;93740.56;;;25.18;52.50
49393;BME280;35268;42.642;23.308;2023-06-14T10:31:49;93744.69;;;25.34;51.88
49393;BME280;35268;42.642;23.308;2023-06-14T10:37:12;93748.97;;;25.62;53.15
49393;BME280;35268;42.642;23.308;2023-06-14T10:39:43;93727.03;;;25.69;49.91
49393;BME280;35268;42.642;23.308;2023-06-14T10:42:09;93736.97;;;25.83;50.09
49393;BME280;35268;42.642;23.308;2023-06-14T10:50:08;93738.63;;;26.04;48.95
49393;BME280;35268;42.642;23.308;2023-06-14T10:52:37;93733.75;;;26.15;49.19
49393;BME280;35268;42.642;23.308;2023-06-14T10:55:16;93719.31;;;26.15;49.71
49393;BME280;35268;42.642;23.308;2023-06-14T10:57:56;93713.31;;;26.23;49.65
49393;BME280;35268;42.642;23.308;2023-06-14T11:00:25;93709.81;;;26.23;48.64
49393;BME280;35268;42.642;23.308;2023-06-14T11:05:52;93708.03;;;26.36;49.79
49393;BME280;35268;42.642;23.308;2023-06-14T11:08:24;93711.75;;;26.46;47.05
49393;BME280;35268;42.642;23.308;2023-06-14T11:11:06;93694.66;;;26.42;47.14
49393;BME280;35268;42.642;23.308;2023-06-14T11:13:53;93703.47;;;26.30;47.17
49393;BME280;35268;42.642;23.308;2023-06-14T11:16:28;93691.84;;;26.02;48.03
49393;BME280;35268;42.642;23.308;2023-06-14T11:19:06;93698.56;;;25.97;51.10
49393;BME280;35268;42.642;23.308;2023-06-14T11:21:39;93695.22;;;26.10;48.88
49393;BME280;35268;42.642;23.308;2023-06-14T11:24:17;93690.88;;;26.36;49.77
49393;BME280;35268;42.642;23.308;2023-06-14T11:26:49;93687.75;;;26.57;48.02
49393;BME280;35268;42.642;23.308;2023-06-14T11:29:15;93690.16;;;26.75;48.18
49393;BME280;35268;42.642;23.308;2023-06-14T11:32:01;93694.22;;;26.67;48.09
49393;BME280;35268;42.642;23.308;2023-06-14T11:34:45;93690.28;;;26.68;48.60
49393;BME280;35268;42.642;23.308;2023-06-14T11:37:11;93690.84;;;26.59;46.09
49393;BME280;35268;42.642;23.308;2023-06-14T11:39:46;93689.25;;;26.38;47.71
49393;BME280;35268;42.642;23.308;2023-06-14T11:42:17;93701.22;;;26.25;47.50
49393;BME280;35268;42.642;23.308;2023-06-14T11:45:07;93689.41;;;26.08;46.80
49393;BME280;35268;42.642;23.308;2023-06-14T11:47:34;93675.09;;;26.00;47.66
49393;BME280;35268;42.642;23.308;2023-06-14T11:50:11;93674.81;;;25.94;46.83
49393;BME280;35268;42.642;23.308;2023-06-14T11:52:39;93672.91;;;25.91;47.64
49393;BME280;35268;42.642;23.308;2023-06-14T11:55:14;93667.47;;;25.91;48.64
49393;BME280;35268;42.642;23.308;2023-06-14T11:57:40;93666.66;;;25.91;48.00
49393;BME280;35268;42.642;23.308;2023-06-14T12:00:19;93662.41;;;25.90;48.07
49393;BME280;35268;42.642;23.308;2023-06-14T12:02:55;93657.66;;;25.94;48.78
49393;BME280;35268;42.642;23.308;2023-06-14T12:05:22;93663.16;;;25.90;48.86
49393;BME280;35268;42.642;23.308;2023-06-14T12:08:03;93650.03;;;25.81;48.41
49393;BME280;35268;42.642;23.308;2023-06-14T12:10:42;93642.50;;;25.66;48.27
49393;BME280;35268;42.642;23.308;2023-06-14T12:13:18;93650.06;;;25.54;48.93
49393;BME280;35268;42.642;23.308;2023-06-14T12:15:44;93652.44;;;25.52;48.62
49393;BME280;35268;42.642;23.308;2023-06-14T12:18:20;93648.84;;;25.59;48.84
49393;BME280;35268;42.642;23.308;2023-06-14T12:20:50;93644.16;;;25.59;49.95
49393;BME280;35268;42.642;23.308;2023-06-14T12:23:27;93633.53;;;25.65;50.07
49393;BME280;35268;42.642;23.308;2023-06-14T12:25:55;93640.38;;;25.77;50.88
49393;BME280;35268;42.642;23.308;2023-06-14T12:28:39;93642.31;;;25.76;50.52
49393;BME280;35268;42.642;23.308;2023-06-14T12:31:07;93647.72;;;25.80;51.30
49393;BME280;35268;42.642;23.308;2023-06-14T12:33:38;93635.66;;;25.77;48.91
49393;BME280;35268;42.642;23.308;2023-06-14T12:36:08;93637.91;;;25.82;48.09
49393;BME280;35268;42.642;23.308;2023-06-14T12:38:37;93637.09;;;25.86;48.85
49393;BME280;35268;42.642;23.308;2023-06-14T12:41:31;93624.25;;;25.82;50.28
49393;BME280;35268;42.642;23.308;2023-06-14T12:44:10;93624.81;;;25.74;49.79
49393;BME280;35268;42.642;23.308;2023-06-14T12:46:36;93625.56;;;25.74;49.16
49393;BME280;35268;42.642;23.308;2023-06-14T12:49:12;93621.66;;;25.75;49.73
49393;BME280;35268;42.642;23.308;2023-06-14T12:51:39;93619.34;;;25.74;50.36
49393;BME280;35268;42.642;23.308;2023-06-14T12:54:06;93618.59;;;25.73;50.57
49393;BME280;35268;42.642;23.308;2023-06-14T12:56:36;93616.97;;;25.76;50.56
49393;BME280;35268;42.642;23.308;2023-06-14T12:59:02;93612.41;;;25.69;50.37
49393;BME280;35268;42.642;23.308;2023-06-14T13:01:27;93617.88;;;25.69;51.64
49393;BME280;35268;42.642;23.308;2023-06-14T13:03:53;93620.59;;;25.69;52.06
49393;BME280;35268;42.642;23.308;2023-06-14T13:06:21;93606.25;;;25.65;51.25
49393;BME280;35268;42.642;23.308;2023-06-14T13:08:48;93611.34;;;25.63;50.96
49393;BME280;35268;42.642;23.308;2023-06-14T13:11:13;93615.97;;;25.42;51.87
49393;BME280;35268;42.642;23.308;2023-06-14T13:13:39;93626.41;;;25.20;52.53
49393;BME280;35268;42.642;23.308;2023-06-14T13:16:06;93627.59;;;24.89;55.73
49393;BME280;35268;42.642;23.308;2023-06-14T13:18:32;93642.00;;;24.58;56.59
49393;BME280;35268;42.642;23.308;2023-06-14T13:20:57;93659.75;;;23.98;58.75
49393;BME280;35268;42.642;23.308;2023-06-14T13:23:23;93657.81;;;23.46;61.03
49393;BME280;35268;42.642;23.308;2023-06-14T13:25:49;93665.84;;;23.05;63.07
49393;BME280;35268;42.642;23.308;2023-06-14T13:28:18;93667.94;;;22.64;63.36
49393;BME280;35268;42.642;23.308;2023-06-14T13:30:43;93677.75;;;22.37;64.32
49393;BME280;35268;42.642;23.308;2023-06-14T13:33:09;93676.22;;;22.14;65.60
49393;BME280;35268;42.642;23.308;2023-06-14T13:35:34;93673.91;;;21.88;66.67